Amboy, MN

1:11 PM CDT on July 23, 2016 (GMT -0500)
Golly Farms | | Change Station

Elev 1079 ft 43.80 °N, 94.20 °W | Updated 6 minutes ago

Clear
Clear
76.4 °F
Feels Like 77 °F
N
9.0
Wind Variable Wind from ESE
Gusts 15.0 mph

Today
High -- | Low -- °F
--% Chance of Precip.
Yesterday
High -- | Low -- °F
Precip. -- in
Pressure 29.82 in
Visibility 10.0 miles
Clouds Clear
Heat Index 77 °F
Dew Point 74 °F
Humidity 93%
Rainfall 0.60 in
Snow Depth Not available.
5:56 AM 8:49 PM
Waning Gibbous, 83% visible
METAR KJYG 231753Z AUTO 13009G18KT 10SM CLR 22/19 A2982 RMK AO2
Pressure 29.82 in
Visibility 10.0 miles
Clouds Clear
Heat Index 77 °F
Dew Point 74 °F
Humidity 93%
Rainfall 0.60 in
Snow Depth Not available.
5:56 AM 8:49 PM
Waning Gibbous, 83% visible
METAR KJYG 231753Z AUTO 13009G18KT 10SM CLR 22/19 A2982 RMK AO2

10-Day Weather Forecast

Almanac

Astronomy

Jul. 23, 2016 Rise Set
Actual Time
Civil Twilight
Nautical Twilight
Astronomical Twilight
Moon
Length of Visible Light
Length of Day
Tomorrow will be .
, % of the Moon is Illuminated

Today's Extremes

State Highs State Lows

Community

WunderPhotos

Upload Photos

1,926,881 photos uploaded!

WunderBlog® & News

Nearby

Air Quality

  Air Quality AQ Index Pollutant
Not available.

Snow Depth

Station Depth Elevation

Earthquake Activity

City Distance Mag. Time & Date
Minimum magnitude displayed is 2.5.

Coastal Water Temperatures

Place Temperature

Stations

Nearby Weather Stations

Station Location Temp. Windchill Dew Point Humidity Wind Precip. Elev Updated Type
                   

Watches & Warnings

There are currently no watches in effect.